sensor_id;sensor_type;location;lat;lon;timestamp;P1;durP1;ratioP1;P2;durP2;ratioP2
36651;SDS011;53334;51.976;20.144;2022-12-16T00:01:29;33.67;;;22.77;;
36651;SDS011;53334;51.976;20.144;2022-12-16T00:04:03;31.45;;;24.17;;
36651;SDS011;53334;51.976;20.144;2022-12-16T00:06:37;31.58;;;22.90;;
36651;SDS011;53334;51.976;20.144;2022-12-16T00:11:45;31.87;;;22.53;;
36651;SDS011;53334;51.976;20.144;2022-12-16T00:16:55;28.42;;;21.85;;
36651;SDS011;53334;51.976;20.144;2022-12-16T00:19:29;27.40;;;21.42;;
36651;SDS011;53334;51.976;20.144;2022-12-16T00:22:03;31.48;;;24.58;;
36651;SDS011;53334;51.976;20.144;2022-12-16T00:24:37;31.77;;;23.05;;
36651;SDS011;53334;51.976;20.144;2022-12-16T00:27:11;29.48;;;22.58;;
36651;SDS011;53334;51.976;20.144;2022-12-16T00:29:45;29.65;;;22.05;;
36651;SDS011;53334;51.976;20.144;2022-12-16T00:32:21;28.58;;;21.38;;
36651;SDS011;53334;51.976;20.144;2022-12-16T00:34:55;31.35;;;22.27;;
36651;SDS011;53334;51.976;20.144;2022-12-16T00:37:29;28.65;;;21.20;;
36651;SDS011;53334;51.976;20.144;2022-12-16T00:40:04;32.47;;;21.33;;
36651;SDS011;53334;51.976;20.144;2022-12-16T00:42:39;30.40;;;21.10;;
36651;SDS011;53334;51.976;20.144;2022-12-16T00:45:13;28.75;;;22.55;;
36651;SDS011;53334;51.976;20.144;2022-12-16T00:47:49;32.90;;;22.55;;
36651;SDS011;53334;51.976;20.144;2022-12-16T00:50:23;31.17;;;23.65;;
36651;SDS011;53334;51.976;20.144;2022-12-16T00:52:57;32.17;;;23.23;;
36651;SDS011;53334;51.976;20.144;2022-12-16T00:55:31;32.35;;;23.58;;
36651;SDS011;53334;51.976;20.144;2022-12-16T00:58:05;27.77;;;21.80;;
36651;SDS011;53334;51.976;20.144;2022-12-16T01:00:39;33.47;;;23.92;;
36651;SDS011;53334;51.976;20.144;2022-12-16T01:03:15;29.42;;;22.33;;
36651;SDS011;53334;51.976;20.144;2022-12-16T01:05:53;31.25;;;22.75;;
36651;SDS011;53334;51.976;20.144;2022-12-16T01:08:27;28.00;;;21.77;;
36651;SDS011;53334;51.976;20.144;2022-12-16T01:11:01;32.80;;;23.25;;
36651;SDS011;53334;51.976;20.144;2022-12-16T01:13:35;34.05;;;22.95;;
36651;SDS011;53334;51.976;20.144;2022-12-16T01:18:44;30.15;;;22.83;;
36651;SDS011;53334;51.976;20.144;2022-12-16T01:21:17;29.98;;;22.75;;
36651;SDS011;53334;51.976;20.144;2022-12-16T01:23:51;27.27;;;20.75;;
36651;SDS011;53334;51.976;20.144;2022-12-16T01:26:26;30.65;;;22.27;;
36651;SDS011;53334;51.976;20.144;2022-12-16T01:31:33;30.23;;;22.40;;
36651;SDS011;53334;51.976;20.144;2022-12-16T01:34:09;27.05;;;21.02;;
36651;SDS011;53334;51.976;20.144;2022-12-16T01:36:42;27.00;;;19.73;;
36651;SDS011;53334;51.976;20.144;2022-12-16T01:39:16;34.40;;;21.63;;
36651;SDS011;53334;51.976;20.144;2022-12-16T01:41:50;33.75;;;20.98;;
36651;SDS011;53334;51.976;20.144;2022-12-16T01:44:25;28.70;;;20.77;;
36651;SDS011;53334;51.976;20.144;2022-12-16T01:47:00;26.13;;;19.20;;
36651;SDS011;53334;51.976;20.144;2022-12-16T01:49:39;27.58;;;19.95;;
36651;SDS011;53334;51.976;20.144;2022-12-16T01:52:19;25.33;;;19.13;;
36651;SDS011;53334;51.976;20.144;2022-12-16T01:54:55;29.17;;;20.80;;
36651;SDS011;53334;51.976;20.144;2022-12-16T01:57:34;27.00;;;20.65;;
36651;SDS011;53334;51.976;20.144;2022-12-16T02:00:12;27.02;;;19.85;;
36651;SDS011;53334;51.976;20.144;2022-12-16T02:02:47;29.05;;;20.13;;
36651;SDS011;53334;51.976;20.144;2022-12-16T02:05:23;27.45;;;19.38;;
36651;SDS011;53334;51.976;20.144;2022-12-16T02:07:59;31.58;;;19.58;;
36651;SDS011;53334;51.976;20.144;2022-12-16T02:10:38;28.15;;;19.27;;
36651;SDS011;53334;51.976;20.144;2022-12-16T02:13:29;27.70;;;20.17;;
36651;SDS011;53334;51.976;20.144;2022-12-16T02:16:14;26.45;;;18.90;;
36651;SDS011;53334;51.976;20.144;2022-12-16T02:18:52;28.90;;;20.73;;
36651;SDS011;53334;51.976;20.144;2022-12-16T02:21:40;28.00;;;19.20;;
36651;SDS011;53334;51.976;20.144;2022-12-16T02:27:48;24.08;;;18.52;;
36651;SDS011;53334;51.976;20.144;2022-12-16T02:33:43;26.20;;;17.35;;
36651;SDS011;53334;51.976;20.144;2022-12-16T02:36:27;24.13;;;18.05;;
36651;SDS011;53334;51.976;20.144;2022-12-16T02:39:16;25.75;;;18.08;;
36651;SDS011;53334;51.976;20.144;2022-12-16T02:41:55;26.85;;;19.95;;
36651;SDS011;53334;51.976;20.144;2022-12-16T02:44:38;25.65;;;18.10;;
36651;SDS011;53334;51.976;20.144;2022-12-16T02:47:17;26.73;;;18.55;;
36651;SDS011;53334;51.976;20.144;2022-12-16T02:49:52;27.05;;;18.92;;
36651;SDS011;53334;51.976;20.144;2022-12-16T02:52:27;24.20;;;17.48;;
36651;SDS011;53334;51.976;20.144;2022-12-16T02:55:05;28.08;;;17.95;;
36651;SDS011;53334;51.976;20.144;2022-12-16T03:00:48;23.88;;;17.70;;
36651;SDS011;53334;51.976;20.144;2022-12-16T03:03:30;23.25;;;16.02;;
36651;SDS011;53334;51.976;20.144;2022-12-16T03:06:12;27.25;;;18.08;;
36651;SDS011;53334;51.976;20.144;2022-12-16T03:08:50;24.67;;;18.10;;
36651;SDS011;53334;51.976;20.144;2022-12-16T03:11:29;26.25;;;18.05;;
36651;SDS011;53334;51.976;20.144;2022-12-16T03:14:04;23.20;;;16.42;;
36651;SDS011;53334;51.976;20.144;2022-12-16T03:16:40;24.67;;;17.08;;
36651;SDS011;53334;51.976;20.144;2022-12-16T03:19:17;28.50;;;17.33;;
36651;SDS011;53334;51.976;20.144;2022-12-16T03:21:54;20.33;;;16.17;;
36651;SDS011;53334;51.976;20.144;2022-12-16T03:24:32;21.27;;;16.13;;
36651;SDS011;53334;51.976;20.144;2022-12-16T03:27:07;23.27;;;15.90;;
36651;SDS011;53334;51.976;20.144;2022-12-16T03:29:50;20.52;;;16.13;;
36651;SDS011;53334;51.976;20.144;2022-12-16T03:32:32;21.42;;;16.40;;
36651;SDS011;53334;51.976;20.144;2022-12-16T03:35:13;18.33;;;14.18;;
36651;SDS011;53334;51.976;20.144;2022-12-16T03:37:52;20.83;;;15.85;;
36651;SDS011;53334;51.976;20.144;2022-12-16T03:40:29;20.92;;;16.15;;
36651;SDS011;53334;51.976;20.144;2022-12-16T03:43:05;20.90;;;15.57;;
36651;SDS011;53334;51.976;20.144;2022-12-16T03:45:40;24.55;;;15.57;;
36651;SDS011;53334;51.976;20.144;2022-12-16T03:48:20;25.30;;;16.73;;
36651;SDS011;53334;51.976;20.144;2022-12-16T03:50:56;20.83;;;15.05;;
36651;SDS011;53334;51.976;20.144;2022-12-16T03:53:30;24.17;;;15.38;;
36651;SDS011;53334;51.976;20.144;2022-12-16T03:56:05;19.92;;;15.23;;
36651;SDS011;53334;51.976;20.144;2022-12-16T03:58:39;23.60;;;13.70;;
36651;SDS011;53334;51.976;20.144;2022-12-16T04:03:47;21.50;;;15.13;;
36651;SDS011;53334;51.976;20.144;2022-12-16T04:06:22;20.88;;;15.20;;
36651;SDS011;53334;51.976;20.144;2022-12-16T04:08:56;16.88;;;14.00;;
36651;SDS011;53334;51.976;20.144;2022-12-16T04:11:30;22.02;;;15.10;;
36651;SDS011;53334;51.976;20.144;2022-12-16T04:14:22;19.35;;;14.20;;
36651;SDS011;53334;51.976;20.144;2022-12-16T04:17:13;25.17;;;16.67;;
36651;SDS011;53334;51.976;20.144;2022-12-16T04:20:04;19.55;;;15.05;;
36651;SDS011;53334;51.976;20.144;2022-12-16T04:23:04;19.80;;;14.18;;
36651;SDS011;53334;51.976;20.144;2022-12-16T04:25:58;18.90;;;13.35;;
36651;SDS011;53334;51.976;20.144;2022-12-16T04:28:32;28.13;;;15.32;;
36651;SDS011;53334;51.976;20.144;2022-12-16T04:33:40;20.50;;;14.82;;
36651;SDS011;53334;51.976;20.144;2022-12-16T04:36:31;19.50;;;13.85;;
36651;SDS011;53334;51.976;20.144;2022-12-16T04:39:23;18.58;;;13.55;;
36651;SDS011;53334;51.976;20.144;2022-12-16T04:42:15;19.17;;;14.13;;
36651;SDS011;53334;51.976;20.144;2022-12-16T04:45:07;19.52;;;14.55;;
36651;SDS011;53334;51.976;20.144;2022-12-16T04:47:58;22.10;;;15.05;;
36651;SDS011;53334;51.976;20.144;2022-12-16T04:50:50;23.70;;;14.13;;
36651;SDS011;53334;51.976;20.144;2022-12-16T04:53:38;17.50;;;12.60;;
36651;SDS011;53334;51.976;20.144;2022-12-16T04:56:41;23.02;;;13.80;;
36651;SDS011;53334;51.976;20.144;2022-12-16T04:59:32;19.83;;;14.23;;
36651;SDS011;53334;51.976;20.144;2022-12-16T05:02:23;25.08;;;14.52;;
36651;SDS011;53334;51.976;20.144;2022-12-16T05:05:26;21.80;;;13.18;;
36651;SDS011;53334;51.976;20.144;2022-12-16T05:08:17;20.17;;;12.43;;
36651;SDS011;53334;51.976;20.144;2022-12-16T05:11:08;18.00;;;13.05;;
36651;SDS011;53334;51.976;20.144;2022-12-16T05:14:01;22.27;;;14.43;;
36651;SDS011;53334;51.976;20.144;2022-12-16T05:16:52;20.25;;;13.68;;
36651;SDS011;53334;51.976;20.144;2022-12-16T05:19:43;22.67;;;14.05;;
36651;SDS011;53334;51.976;20.144;2022-12-16T05:22:35;19.38;;;13.55;;
36651;SDS011;53334;51.976;20.144;2022-12-16T05:25:26;18.40;;;13.15;;
36651;SDS011;53334;51.976;20.144;2022-12-16T05:28:17;19.17;;;13.00;;
36651;SDS011;53334;51.976;20.144;2022-12-16T05:31:25;19.17;;;13.75;;
36651;SDS011;53334;51.976;20.144;2022-12-16T05:34:16;22.45;;;13.35;;
36651;SDS011;53334;51.976;20.144;2022-12-16T05:37:07;20.00;;;12.18;;
36651;SDS011;53334;51.976;20.144;2022-12-16T05:39:58;20.23;;;13.20;;
36651;SDS011;53334;51.976;20.144;2022-12-16T05:42:46;18.95;;;14.13;;
36651;SDS011;53334;51.976;20.144;2022-12-16T05:45:45;20.95;;;13.23;;
36651;SDS011;53334;51.976;20.144;2022-12-16T05:48:38;19.65;;;13.27;;
36651;SDS011;53334;51.976;20.144;2022-12-16T05:51:29;16.98;;;13.07;;
36651;SDS011;53334;51.976;20.144;2022-12-16T05:54:21;21.38;;;13.65;;
36651;SDS011;53334;51.976;20.144;2022-12-16T05:57:12;17.05;;;13.07;;
36651;SDS011;53334;51.976;20.144;2022-12-16T06:00:03;19.25;;;13.20;;
36651;SDS011;53334;51.976;20.144;2022-12-16T06:02:55;21.80;;;12.70;;
36651;SDS011;53334;51.976;20.144;2022-12-16T06:05:48;17.67;;;12.90;;
36651;SDS011;53334;51.976;20.144;2022-12-16T06:08:39;20.92;;;12.95;;
36651;SDS011;53334;51.976;20.144;2022-12-16T06:11:30;20.60;;;12.18;;
36651;SDS011;53334;51.976;20.144;2022-12-16T06:14:21;20.15;;;12.77;;
36651;SDS011;53334;51.976;20.144;2022-12-16T06:17:13;19.85;;;13.05;;
36651;SDS011;53334;51.976;20.144;2022-12-16T06:20:04;19.98;;;12.73;;
36651;SDS011;53334;51.976;20.144;2022-12-16T06:22:58;20.13;;;13.00;;
36651;SDS011;53334;51.976;20.144;2022-12-16T06:25:56;20.83;;;12.38;;
36651;SDS011;53334;51.976;20.144;2022-12-16T06:28:47;22.67;;;13.82;;
36651;SDS011;53334;51.976;20.144;2022-12-16T06:31:39;23.38;;;11.52;;
36651;SDS011;53334;51.976;20.144;2022-12-16T06:34:44;18.02;;;11.40;;
36651;SDS011;53334;51.976;20.144;2022-12-16T06:37:36;18.10;;;13.02;;
36651;SDS011;53334;51.976;20.144;2022-12-16T06:40:29;19.77;;;14.38;;
36651;SDS011;53334;51.976;20.144;2022-12-16T06:43:21;19.58;;;13.95;;
36651;SDS011;53334;51.976;20.144;2022-12-16T06:46:12;22.95;;;15.93;;
36651;SDS011;53334;51.976;20.144;2022-12-16T06:49:04;21.60;;;16.48;;
36651;SDS011;53334;51.976;20.144;2022-12-16T06:51:55;18.80;;;14.15;;
36651;SDS011;53334;51.976;20.144;2022-12-16T06:54:46;24.33;;;17.92;;
36651;SDS011;53334;51.976;20.144;2022-12-16T06:57:39;21.38;;;16.42;;
36651;SDS011;53334;51.976;20.144;2022-12-16T07:00:30;23.13;;;18.65;;
36651;SDS011;53334;51.976;20.144;2022-12-16T07:03:22;23.92;;;18.48;;
36651;SDS011;53334;51.976;20.144;2022-12-16T07:06:14;25.63;;;18.55;;
36651;SDS011;53334;51.976;20.144;2022-12-16T07:09:05;24.52;;;18.38;;
36651;SDS011;53334;51.976;20.144;2022-12-16T07:11:57;26.63;;;20.33;;
36651;SDS011;53334;51.976;20.144;2022-12-16T07:14:50;26.95;;;19.67;;
36651;SDS011;53334;51.976;20.144;2022-12-16T07:17:43;26.73;;;20.17;;
36651;SDS011;53334;51.976;20.144;2022-12-16T07:20:34;25.85;;;19.60;;
36651;SDS011;53334;51.976;20.144;2022-12-16T07:23:25;27.65;;;20.23;;
36651;SDS011;53334;51.976;20.144;2022-12-16T07:26:17;25.85;;;20.80;;
36651;SDS011;53334;51.976;20.144;2022-12-16T07:29:08;28.50;;;21.65;;
36651;SDS011;53334;51.976;20.144;2022-12-16T07:32:00;23.70;;;18.15;;
36651;SDS011;53334;51.976;20.144;2022-12-16T07:34:52;26.33;;;19.65;;
36651;SDS011;53334;51.976;20.144;2022-12-16T07:37:43;31.17;;;22.27;;
36651;SDS011;53334;51.976;20.144;2022-12-16T07:40:34;31.63;;;22.55;;
36651;SDS011;53334;51.976;20.144;2022-12-16T07:43:26;27.83;;;20.58;;
36651;SDS011;53334;51.976;20.144;2022-12-16T07:46:17;30.23;;;21.80;;
36651;SDS011;53334;51.976;20.144;2022-12-16T07:49:10;32.00;;;23.13;;
36651;SDS011;53334;51.976;20.144;2022-12-16T07:52:02;30.77;;;21.83;;
36651;SDS011;53334;51.976;20.144;2022-12-16T07:54:53;40.78;;;22.30;;
36651;SDS011;53334;51.976;20.144;2022-12-16T07:57:47;30.35;;;20.85;;
36651;SDS011;53334;51.976;20.144;2022-12-16T08:00:39;35.95;;;21.45;;
36651;SDS011;53334;51.976;20.144;2022-12-16T08:03:35;39.80;;;20.15;;
36651;SDS011;53334;51.976;20.144;2022-12-16T08:06:28;37.13;;;19.48;;
36651;SDS011;53334;51.976;20.144;2022-12-16T08:09:19;32.65;;;18.45;;
36651;SDS011;53334;51.976;20.144;2022-12-16T08:12:10;40.72;;;18.23;;
36651;SDS011;53334;51.976;20.144;2022-12-16T08:15:02;27.65;;;17.90;;
36651;SDS011;53334;51.976;20.144;2022-12-16T08:17:53;27.08;;;18.20;;
36651;SDS011;53334;51.976;20.144;2022-12-16T08:20:45;23.45;;;17.38;;
36651;SDS011;53334;51.976;20.144;2022-12-16T08:23:37;58.88;;;43.58;;
36651;SDS011;53334;51.976;20.144;2022-12-16T08:26:29;49.22;;;35.33;;
36651;SDS011;53334;51.976;20.144;2022-12-16T08:29:20;42.67;;;30.90;;
36651;SDS011;53334;51.976;20.144;2022-12-16T08:32:16;41.13;;;28.70;;
36651;SDS011;53334;51.976;20.144;2022-12-16T08:35:07;39.25;;;27.08;;
36651;SDS011;53334;51.976;20.144;2022-12-16T08:37:57;43.10;;;27.05;;
36651;SDS011;53334;51.976;20.144;2022-12-16T08:40:53;31.80;;;24.65;;
36651;SDS011;53334;51.976;20.144;2022-12-16T08:43:44;40.88;;;25.77;;
36651;SDS011;53334;51.976;20.144;2022-12-16T08:46:35;33.45;;;23.55;;
36651;SDS011;53334;51.976;20.144;2022-12-16T08:49:27;36.60;;;25.45;;
36651;SDS011;53334;51.976;20.144;2022-12-16T08:52:25;30.65;;;22.45;;
36651;SDS011;53334;51.976;20.144;2022-12-16T08:55:16;29.10;;;21.73;;
36651;SDS011;53334;51.976;20.144;2022-12-16T08:58:09;32.22;;;22.13;;
36651;SDS011;53334;51.976;20.144;2022-12-16T09:01:00;31.77;;;20.85;;
36651;SDS011;53334;51.976;20.144;2022-12-16T09:03:52;27.25;;;21.52;;
36651;SDS011;53334;51.976;20.144;2022-12-16T09:06:44;36.65;;;22.60;;
36651;SDS011;53334;51.976;20.144;2022-12-16T09:09:36;32.92;;;20.58;;
36651;SDS011;53334;51.976;20.144;2022-12-16T09:12:27;29.70;;;20.45;;
36651;SDS011;53334;51.976;20.144;2022-12-16T09:15:20;30.30;;;19.15;;
36651;SDS011;53334;51.976;20.144;2022-12-16T09:18:27;29.13;;;18.90;;
36651;SDS011;53334;51.976;20.144;2022-12-16T09:21:33;30.92;;;19.55;;
36651;SDS011;53334;51.976;20.144;2022-12-16T09:24:25;23.15;;;17.92;;
36651;SDS011;53334;51.976;20.144;2022-12-16T09:27:16;24.63;;;18.95;;
36651;SDS011;53334;51.976;20.144;2022-12-16T09:30:08;22.70;;;17.70;;
36651;SDS011;53334;51.976;20.144;2022-12-16T09:33:01;26.58;;;17.90;;
36651;SDS011;53334;51.976;20.144;2022-12-16T09:35:53;24.23;;;17.50;;
36651;SDS011;53334;51.976;20.144;2022-12-16T09:38:45;22.10;;;16.73;;
36651;SDS011;53334;51.976;20.144;2022-12-16T09:41:39;23.40;;;17.92;;
36651;SDS011;53334;51.976;20.144;2022-12-16T09:44:35;27.63;;;16.33;;
36651;SDS011;53334;51.976;20.144;2022-12-16T09:47:37;24.58;;;17.15;;
36651;SDS011;53334;51.976;20.144;2022-12-16T09:50:39;31.15;;;17.30;;
36651;SDS011;53334;51.976;20.144;2022-12-16T09:53:33;26.75;;;15.98;;
36651;SDS011;53334;51.976;20.144;2022-12-16T09:56:28;28.80;;;16.70;;
36651;SDS011;53334;51.976;20.144;2022-12-16T10:02:16;22.52;;;15.95;;
36651;SDS011;53334;51.976;20.144;2022-12-16T10:05:09;31.75;;;16.52;;
36651;SDS011;53334;51.976;20.144;2022-12-16T10:08:07;31.08;;;16.80;;
36651;SDS011;53334;51.976;20.144;2022-12-16T10:11:06;29.17;;;16.42;;
36651;SDS011;53334;51.976;20.144;2022-12-16T10:14:03;25.45;;;15.75;;
36651;SDS011;53334;51.976;20.144;2022-12-16T10:16:58;24.15;;;14.45;;
36651;SDS011;53334;51.976;20.144;2022-12-16T10:19:57;26.98;;;15.13;;
36651;SDS011;53334;51.976;20.144;2022-12-16T10:22:55;22.27;;;15.65;;
36651;SDS011;53334;51.976;20.144;2022-12-16T10:25:54;29.83;;;15.93;;
36651;SDS011;53334;51.976;20.144;2022-12-16T10:28:50;20.00;;;14.57;;
36651;SDS011;53334;51.976;20.144;2022-12-16T10:31:46;22.27;;;14.50;;
36651;SDS011;53334;51.976;20.144;2022-12-16T10:34:37;25.23;;;15.10;;
36651;SDS011;53334;51.976;20.144;2022-12-16T10:37:31;25.20;;;14.52;;
36651;SDS011;53334;51.976;20.144;2022-12-16T10:40:25;20.67;;;13.95;;
36651;SDS011;53334;51.976;20.144;2022-12-16T10:43:23;24.00;;;11.75;;
36651;SDS011;53334;51.976;20.144;2022-12-16T10:46:27;25.42;;;14.27;;
36651;SDS011;53334;51.976;20.144;2022-12-16T10:49:22;17.70;;;12.10;;
36651;SDS011;53334;51.976;20.144;2022-12-16T10:52:13;23.35;;;13.90;;
36651;SDS011;53334;51.976;20.144;2022-12-16T10:55:06;23.58;;;13.88;;
36651;SDS011;53334;51.976;20.144;2022-12-16T10:58:11;23.33;;;11.95;;
36651;SDS011;53334;51.976;20.144;2022-12-16T11:01:20;17.77;;;12.10;;
36651;SDS011;53334;51.976;20.144;2022-12-16T11:04:28;23.25;;;14.23;;
36651;SDS011;53334;51.976;20.144;2022-12-16T11:07:21;21.27;;;13.40;;
36651;SDS011;53334;51.976;20.144;2022-12-16T11:10:29;25.38;;;14.73;;
36651;SDS011;53334;51.976;20.144;2022-12-16T11:13:24;20.80;;;15.82;;
36651;SDS011;53334;51.976;20.144;2022-12-16T11:16:18;26.13;;;18.23;;
36651;SDS011;53334;51.976;20.144;2022-12-16T11:19:18;47.97;;;21.25;;
36651;SDS011;53334;51.976;20.144;2022-12-16T11:22:12;34.25;;;18.23;;
36651;SDS011;53334;51.976;20.144;2022-12-16T11:25:05;28.10;;;17.17;;
36651;SDS011;53334;51.976;20.144;2022-12-16T11:28:03;24.33;;;16.52;;
36651;SDS011;53334;51.976;20.144;2022-12-16T11:30:55;25.92;;;15.90;;
36651;SDS011;53334;51.976;20.144;2022-12-16T11:33:50;24.52;;;16.63;;
36651;SDS011;53334;51.976;20.144;2022-12-16T11:36:43;19.30;;;14.18;;
36651;SDS011;53334;51.976;20.144;2022-12-16T11:39:36;22.75;;;14.63;;
36651;SDS011;53334;51.976;20.144;2022-12-16T11:42:29;20.27;;;14.48;;
36651;SDS011;53334;51.976;20.144;2022-12-16T11:45:23;21.73;;;15.55;;
36651;SDS011;53334;51.976;20.144;2022-12-16T11:48:16;19.38;;;13.82;;
36651;SDS011;53334;51.976;20.144;2022-12-16T11:51:19;21.73;;;13.90;;
36651;SDS011;53334;51.976;20.144;2022-12-16T11:54:14;20.08;;;14.00;;
36651;SDS011;53334;51.976;20.144;2022-12-16T11:57:15;18.23;;;13.55;;
36651;SDS011;53334;51.976;20.144;2022-12-16T12:00:10;22.92;;;13.50;;
36651;SDS011;53334;51.976;20.144;2022-12-16T12:03:05;18.05;;;13.07;;
36651;SDS011;53334;51.976;20.144;2022-12-16T12:06:00;19.75;;;12.32;;
36651;SDS011;53334;51.976;20.144;2022-12-16T12:08:59;22.90;;;13.80;;
36651;SDS011;53334;51.976;20.144;2022-12-16T12:11:55;18.27;;;13.32;;
36651;SDS011;53334;51.976;20.144;2022-12-16T12:14:54;20.35;;;12.75;;
36651;SDS011;53334;51.976;20.144;2022-12-16T12:17:57;17.63;;;13.02;;
36651;SDS011;53334;51.976;20.144;2022-12-16T12:20:56;17.45;;;12.52;;
36651;SDS011;53334;51.976;20.144;2022-12-16T12:24:11;19.85;;;12.55;;
36651;SDS011;53334;51.976;20.144;2022-12-16T12:27:14;16.73;;;11.88;;
36651;SDS011;53334;51.976;20.144;2022-12-16T12:30:14;20.05;;;11.50;;
36651;SDS011;53334;51.976;20.144;2022-12-16T12:33:14;15.32;;;11.02;;
36651;SDS011;53334;51.976;20.144;2022-12-16T12:36:18;17.65;;;11.90;;
36651;SDS011;53334;51.976;20.144;2022-12-16T12:39:17;19.80;;;12.80;;
36651;SDS011;53334;51.976;20.144;2022-12-16T12:42:15;16.92;;;12.60;;
36651;SDS011;53334;51.976;20.144;2022-12-16T12:45:25;22.27;;;12.35;;
36651;SDS011;53334;51.976;20.144;2022-12-16T12:48:35;22.45;;;14.05;;
36651;SDS011;53334;51.976;20.144;2022-12-16T12:51:34;24.10;;;16.20;;
36651;SDS011;53334;51.976;20.144;2022-12-16T12:54:34;24.80;;;18.45;;
36651;SDS011;53334;51.976;20.144;2022-12-16T12:57:33;44.65;;;27.08;;
36651;SDS011;53334;51.976;20.144;2022-12-16T13:00:27;48.38;;;30.95;;
36651;SDS011;53334;51.976;20.144;2022-12-16T13:03:26;44.40;;;29.15;;
36651;SDS011;53334;51.976;20.144;2022-12-16T13:06:23;41.63;;;28.00;;
36651;SDS011;53334;51.976;20.144;2022-12-16T13:09:22;41.15;;;26.50;;
36651;SDS011;53334;51.976;20.144;2022-12-16T13:12:20;41.20;;;26.65;;
36651;SDS011;53334;51.976;20.144;2022-12-16T13:15:32;38.75;;;25.10;;
36651;SDS011;53334;51.976;20.144;2022-12-16T13:18:26;47.05;;;26.15;;
36651;SDS011;53334;51.976;20.144;2022-12-16T13:24:39;46.45;;;26.38;;
36651;SDS011;53334;51.976;20.144;2022-12-16T13:27:45;53.88;;;30.02;;
36651;SDS011;53334;51.976;20.144;2022-12-16T13:30:54;57.10;;;29.38;;
36651;SDS011;53334;51.976;20.144;2022-12-16T13:33:59;51.72;;;27.85;;
36651;SDS011;53334;51.976;20.144;2022-12-16T13:36:55;49.50;;;28.77;;
36651;SDS011;53334;51.976;20.144;2022-12-16T13:40:00;47.30;;;26.95;;
36651;SDS011;53334;51.976;20.144;2022-12-16T13:42:56;51.45;;;25.75;;
36651;SDS011;53334;51.976;20.144;2022-12-16T13:46:11;46.38;;;25.50;;
36651;SDS011;53334;51.976;20.144;2022-12-16T13:52:34;41.63;;;21.65;;
36651;SDS011;53334;51.976;20.144;2022-12-16T13:55:34;32.60;;;21.02;;
36651;SDS011;53334;51.976;20.144;2022-12-16T13:58:42;31.77;;;19.73;;
36651;SDS011;53334;51.976;20.144;2022-12-16T14:01:36;29.35;;;20.85;;
36651;SDS011;53334;51.976;20.144;2022-12-16T14:04:33;35.88;;;20.52;;
36651;SDS011;53334;51.976;20.144;2022-12-16T14:07:26;35.97;;;20.95;;
36651;SDS011;53334;51.976;20.144;2022-12-16T14:10:23;37.85;;;19.35;;
36651;SDS011;53334;51.976;20.144;2022-12-16T14:13:16;29.83;;;18.02;;
36651;SDS011;53334;51.976;20.144;2022-12-16T14:16:15;35.40;;;20.60;;
36651;SDS011;53334;51.976;20.144;2022-12-16T14:19:16;33.35;;;19.92;;
36651;SDS011;53334;51.976;20.144;2022-12-16T14:22:31;43.88;;;21.33;;
36651;SDS011;53334;51.976;20.144;2022-12-16T14:26:10;35.17;;;20.67;;
36651;SDS011;53334;51.976;20.144;2022-12-16T14:29:03;43.22;;;20.75;;
36651;SDS011;53334;51.976;20.144;2022-12-16T14:32:24;47.65;;;23.00;;
36651;SDS011;53334;51.976;20.144;2022-12-16T14:35:18;35.00;;;20.83;;
36651;SDS011;53334;51.976;20.144;2022-12-16T14:38:12;40.38;;;21.42;;
36651;SDS011;53334;51.976;20.144;2022-12-16T14:41:16;38.63;;;25.00;;
36651;SDS011;53334;51.976;20.144;2022-12-16T14:44:15;38.30;;;24.30;;
36651;SDS011;53334;51.976;20.144;2022-12-16T14:47:11;60.25;;;32.03;;
36651;SDS011;53334;51.976;20.144;2022-12-16T14:50:15;53.30;;;30.00;;
36651;SDS011;53334;51.976;20.144;2022-12-16T14:53:16;56.45;;;29.67;;
36651;SDS011;53334;51.976;20.144;2022-12-16T14:56:18;48.28;;;29.05;;
36651;SDS011;53334;51.976;20.144;2022-12-16T15:02:11;44.83;;;25.27;;
36651;SDS011;53334;51.976;20.144;2022-12-16T15:05:12;40.88;;;26.30;;
36651;SDS011;53334;51.976;20.144;2022-12-16T15:08:04;51.20;;;25.77;;
36651;SDS011;53334;51.976;20.144;2022-12-16T15:10:59;56.50;;;26.50;;
36651;SDS011;53334;51.976;20.144;2022-12-16T15:13:53;40.40;;;24.55;;
36651;SDS011;53334;51.976;20.144;2022-12-16T15:16:49;36.97;;;22.50;;
36651;SDS011;53334;51.976;20.144;2022-12-16T15:19:42;45.65;;;23.48;;
36651;SDS011;53334;51.976;20.144;2022-12-16T15:22:43;38.22;;;20.90;;
36651;SDS011;53334;51.976;20.144;2022-12-16T15:25:39;32.85;;;22.10;;
36651;SDS011;53334;51.976;20.144;2022-12-16T15:28:39;32.42;;;20.27;;
36651;SDS011;53334;51.976;20.144;2022-12-16T15:31:43;38.30;;;20.58;;
36651;SDS011;53334;51.976;20.144;2022-12-16T15:34:36;38.55;;;19.25;;
36651;SDS011;53334;51.976;20.144;2022-12-16T15:37:35;30.23;;;19.30;;
36651;SDS011;53334;51.976;20.144;2022-12-16T15:40:37;40.20;;;20.25;;
36651;SDS011;53334;51.976;20.144;2022-12-16T15:43:30;28.85;;;19.70;;
36651;SDS011;53334;51.976;20.144;2022-12-16T15:46:28;28.88;;;18.55;;
36651;SDS011;53334;51.976;20.144;2022-12-16T15:49:20;28.63;;;20.55;;
36651;SDS011;53334;51.976;20.144;2022-12-16T15:52:20;31.20;;;19.88;;
36651;SDS011;53334;51.976;20.144;2022-12-16T15:55:22;31.13;;;19.90;;
36651;SDS011;53334;51.976;20.144;2022-12-16T15:58:20;30.38;;;19.27;;
36651;SDS011;53334;51.976;20.144;2022-12-16T16:01:14;31.30;;;18.88;;
36651;SDS011;53334;51.976;20.144;2022-12-16T16:07:07;35.05;;;18.92;;
36651;SDS011;53334;51.976;20.144;2022-12-16T16:10:09;25.58;;;17.75;;
36651;SDS011;53334;51.976;20.144;2022-12-16T16:13:08;26.40;;;16.73;;
36651;SDS011;53334;51.976;20.144;2022-12-16T16:16:02;28.88;;;18.52;;
36651;SDS011;53334;51.976;20.144;2022-12-16T16:18:54;27.38;;;18.17;;
36651;SDS011;53334;51.976;20.144;2022-12-16T16:21:46;27.05;;;16.55;;
36651;SDS011;53334;51.976;20.144;2022-12-16T16:24:37;23.65;;;15.88;;
36651;SDS011;53334;51.976;20.144;2022-12-16T16:27:28;24.05;;;16.40;;
36651;SDS011;53334;51.976;20.144;2022-12-16T16:30:20;25.45;;;16.48;;
36651;SDS011;53334;51.976;20.144;2022-12-16T16:33:12;27.60;;;16.23;;
36651;SDS011;53334;51.976;20.144;2022-12-16T16:36:08;22.83;;;13.83;;
36651;SDS011;53334;51.976;20.144;2022-12-16T16:39:03;26.30;;;14.48;;
36651;SDS011;53334;51.976;20.144;2022-12-16T16:41:54;18.77;;;13.93;;
36651;SDS011;53334;51.976;20.144;2022-12-16T16:44:46;18.60;;;14.20;;
36651;SDS011;53334;51.976;20.144;2022-12-16T16:47:38;20.98;;;14.40;;
36651;SDS011;53334;51.976;20.144;2022-12-16T16:50:31;24.80;;;13.30;;
36651;SDS011;53334;51.976;20.144;2022-12-16T16:53:22;22.60;;;13.73;;
36651;SDS011;53334;51.976;20.144;2022-12-16T16:56:13;24.38;;;14.32;;
36651;SDS011;53334;51.976;20.144;2022-12-16T16:59:05;28.90;;;14.40;;
36651;SDS011;53334;51.976;20.144;2022-12-16T17:01:56;23.27;;;14.77;;
36651;SDS011;53334;51.976;20.144;2022-12-16T17:04:47;22.77;;;13.65;;